Time,TemperatureF,DewpointF,PressureIn,WindDirection,WindDirectionDegrees,WindSpeedMPH,WindSpeedGustMPH,Humidity,HourlyPrecipIn,Conditions,Clouds,dailyrainin,SoftwareType,DateUTC
2013-08-06 00:10:00,71.4,58.0,29.89,SE,146,2.0,2.0,63,0.00,,,0.00,weatherlink.com 1.10,2013-08-06 04:10:00,
2013-08-06 00:25:00,72.2,57.0,29.90,SE,146,0.0,3.0,60,0.00,,,0.00,weatherlink.com 1.10,2013-08-06 04:25:00,
2013-08-06 00:40:00,72.4,59.0,29.91,SE,146,0.0,0.0,63,0.00,,,0.00,weatherlink.com 1.10,2013-08-06 04:40:00,
2013-08-06 00:55:00,71.7,59.0,29.90,SE,146,0.0,1.0,65,0.00,,,0.00,weatherlink.com 1.10,2013-08-06 04:55:00,
2013-08-06 01:10:00,70.7,60.0,29.90,SE,146,0.0,2.0,70,0.00,,,0.00,weatherlink.com 1.10,2013-08-06 05:10:00,
2013-08-06 01:25:00,70.2,60.0,29.89,SE,146,0.0,2.0,71,0.00,,,0.00,weatherlink.com 1.10,2013-08-06 05:25:00,
2013-08-06 01:40:00,70.6,60.0,29.90,SE,146,0.0,0.0,69,0.00,,,0.00,weatherlink.com 1.10,2013-08-06 05:40:00,
2013-08-06 01:55:00,70.4,60.0,29.90,SE,146,1.0,2.0,70,0.00,,,0.00,weatherlink.com 1.10,2013-08-06 05:55:00,
2013-08-06 02:10:00,70.2,62.0,29.89,SE,146,0.0,2.0,74,0.00,,,0.00,weatherlink.com 1.10,2013-08-06 06:10:00,
2013-08-06 02:25:00,70.3,61.0,29.89,SE,146,1.0,2.0,73,0.00,,,0.00,weatherlink.com 1.10,2013-08-06 06:25:00,
2013-08-06 02:40:00,70.3,62.0,29.87,SE,146,0.0,2.0,75,0.00,,,0.00,weatherlink.com 1.10,2013-08-06 06:40:00,
2013-08-06 02:55:00,70.2,62.0,29.87,SE,146,0.0,2.0,74,0.00,,,0.00,weatherlink.com 1.10,2013-08-06 06:55:00,
2013-08-06 03:10:00,70.4,61.0,29.86,SSW,211,1.0,2.0,73,0.00,,,0.00,weatherlink.com 1.10,2013-08-06 07:10:00,
2013-08-06 03:25:00,70.2,62.0,29.87,SSW,209,0.0,2.0,74,0.00,,,0.00,weatherlink.com 1.10,2013-08-06 07:25:00,
2013-08-06 03:40:00,70.1,61.0,29.87,SSW,209,0.0,0.0,73,0.00,,,0.00,weatherlink.com 1.10,2013-08-06 07:40:00,
2013-08-06 03:55:00,69.8,62.0,29.87,SSW,209,0.0,2.0,77,0.00,,,0.00,weatherlink.com 1.10,2013-08-06 07:55:00,
2013-08-06 04:10:00,69.3,63.0,29.88,SSW,209,0.0,1.0,79,0.00,,,0.00,weatherlink.com 1.10,2013-08-06 08:10:00,
2013-08-06 04:25:00,69.2,62.0,29.88,SSW,209,1.0,2.0,77,0.00,,,0.00,weatherlink.com 1.10,2013-08-06 08:25:00,
2013-08-06 04:40:00,69.4,62.0,29.88,SSW,207,1.0,2.0,78,0.00,,,0.00,weatherlink.com 1.10,2013-08-06 08:40:00,
2013-08-06 04:55:00,69.9,63.0,29.88,SSW,207,0.0,1.0,79,0.00,,,0.00,weatherlink.com 1.10,2013-08-06 08:55:00,
2013-08-06 05:10:00,69.9,64.0,29.89,SSW,207,0.0,1.0,80,0.00,,,0.00,weatherlink.com 1.10,2013-08-06 09:10:00,
2013-08-06 05:25:00,69.2,62.0,29.89,SSW,207,0.0,0.0,78,0.00,,,0.00,weatherlink.com 1.10,2013-08-06 09:25:00,
2013-08-06 05:40:00,69.0,64.0,29.89,SSW,207,0.0,1.0,83,0.00,,,0.00,weatherlink.com 1.10,2013-08-06 09:40:00,
2013-08-06 05:55:00,68.6,64.0,29.89,SSW,206,0.0,1.0,84,0.00,,,0.00,weatherlink.com 1.10,2013-08-06 09:55:00,
2013-08-06 06:10:00,67.9,63.0,29.88,SSW,206,2.0,2.0,85,0.00,,,0.00,weatherlink.com 1.10,2013-08-06 10:10:00,
2013-08-06 06:25:00,67.2,63.0,29.88,SSW,205,1.0,4.0,86,0.00,,,0.00,weatherlink.com 1.10,2013-08-06 10:25:00,
2013-08-06 06:40:00,67.5,65.0,29.89,SSW,205,0.0,2.0,91,0.00,,,0.00,weatherlink.com 1.10,2013-08-06 10:40:00,
2013-08-06 06:55:00,67.7,65.0,29.89,SSW,205,1.0,1.0,90,0.00,,,0.00,weatherlink.com 1.10,2013-08-06 10:55:00,
2013-08-06 07:10:00,67.4,64.0,29.89,SSW,205,1.0,2.0,87,0.00,,,0.00,weatherlink.com 1.10,2013-08-06 11:10:00,
2013-08-06 07:25:00,67.6,64.0,29.89,SSW,205,1.0,2.0,88,0.00,,,0.00,weatherlink.com 1.10,2013-08-06 11:25:00,
2013-08-06 07:40:00,67.8,64.0,29.91,SSW,205,1.0,1.0,87,0.00,,,0.00,weatherlink.com 1.10,2013-08-06 11:40:00,
2013-08-06 07:55:00,68.3,64.0,29.91,SSW,205,0.0,1.0,87,0.00,,,0.00,weatherlink.com 1.10,2013-08-06 11:55:00,
2013-08-06 08:10:00,68.9,65.0,29.91,SSW,205,0.0,1.0,87,0.00,,,0.00,weatherlink.com 1.10,2013-08-06 12:10:00,
2013-08-06 08:25:00,69.3,65.0,29.91,SSW,205,1.0,2.0,87,0.00,,,0.00,weatherlink.com 1.10,2013-08-06 12:25:00,
2013-08-06 08:40:00,69.5,65.0,29.91,SSW,205,0.0,2.0,85,0.00,,,0.00,weatherlink.com 1.10,2013-08-06 12:40:00,
2013-08-06 08:55:00,69.9,64.0,29.91,SSW,205,0.0,2.0,82,0.00,,,0.00,weatherlink.com 1.10,2013-08-06 12:55:00,
2013-08-06 09:10:00,70.5,64.0,29.92,SSW,205,0.0,1.0,79,0.00,,,0.00,weatherlink.com 1.10,2013-08-06 13:10:00,
2013-08-06 09:25:00,71.3,64.0,29.92,SSW,205,0.0,1.0,78,0.00,,,0.00,weatherlink.com 1.10,2013-08-06 13:25:00,
2013-08-06 09:41:00,72.1,67.0,29.93,SSW,205,0.0,1.0,83,0.00,,,0.00,weatherlink.com 1.10,2013-08-06 13:41:00,
2013-08-06 09:56:00,72.5,65.0,29.93,SSW,205,0.0,1.0,78,0.00,,,0.00,weatherlink.com 1.10,2013-08-06 13:56:00,
2013-08-06 10:11:00,73.0,67.0,29.93,SSW,205,0.0,0.0,81,0.00,,,0.00,weatherlink.com 1.10,2013-08-06 14:11:00,
2013-08-06 10:26:00,73.7,66.0,29.94,SSW,205,0.0,1.0,78,0.00,,,0.00,weatherlink.com 1.10,2013-08-06 14:26:00,
2013-08-06 10:41:00,74.0,66.0,29.93,SSW,205,0.0,0.0,77,0.00,,,0.00,weatherlink.com 1.10,2013-08-06 14:41:00,
2013-08-06 10:56:00,74.2,66.0,29.93,SSW,205,0.0,1.0,76,0.00,,,0.00,weatherlink.com 1.10,2013-08-06 14:56:00,
2013-08-06 11:11:00,74.7,67.0,29.93,SSW,205,0.0,2.0,76,0.00,,,0.00,weatherlink.com 1.10,2013-08-06 15:11:00,
2013-08-06 11:26:00,74.9,66.0,29.93,NE,46,0.0,3.0,73,0.00,,,0.00,weatherlink.com 1.10,2013-08-06 15:26:00,
2013-08-06 11:41:00,76.1,66.0,29.93,NE,46,0.0,3.0,70,0.00,,,0.00,weatherlink.com 1.10,2013-08-06 15:41:00,
2013-08-06 11:56:00,76.7,66.0,29.93,NE,46,0.0,3.0,69,0.00,,,0.00,weatherlink.com 1.10,2013-08-06 15:56:00,
2013-08-06 12:11:00,76.7,67.0,29.93,NE,45,3.0,3.0,71,0.00,,,0.00,weatherlink.com 1.10,2013-08-06 16:11:00,
2013-08-06 12:26:00,76.8,68.0,29.93,East,82,2.0,6.0,73,0.00,,,0.00,weatherlink.com 1.10,2013-08-06 16:26:00,
2013-08-06 12:41:00,77.3,68.0,29.93,ENE,57,3.0,3.0,72,0.00,,,0.00,weatherlink.com 1.10,2013-08-06 16:41:00,
2013-08-06 12:56:00,77.3,67.0,29.93,NNE,30,2.0,5.0,71,0.00,,,0.00,weatherlink.com 1.10,2013-08-06 16:56:00,
2013-08-06 13:11:00,77.6,67.0,29.93,NE,46,0.0,4.0,69,0.00,,,0.00,weatherlink.com 1.10,2013-08-06 17:11:00,
2013-08-06 13:26:00,77.1,66.0,29.93,NE,44,0.0,4.0,69,0.00,,,0.00,weatherlink.com 1.10,2013-08-06 17:26:00,
2013-08-06 13:41:00,77.3,68.0,29.93,ENE,63,1.0,4.0,73,0.00,,,0.00,weatherlink.com 1.10,2013-08-06 17:41:00,
2013-08-06 13:56:00,76.9,69.0,29.93,ENE,59,2.0,5.0,76,0.00,,,0.00,weatherlink.com 1.10,2013-08-06 17:56:00,
2013-08-06 14:11:00,77.1,68.0,29.92,North,5,2.0,4.0,74,0.00,,,0.00,weatherlink.com 1.10,2013-08-06 18:11:00,
2013-08-06 14:26:00,77.7,69.0,29.92,NNE,14,0.0,3.0,74,0.00,,,0.00,weatherlink.com 1.10,2013-08-06 18:26:00,
2013-08-06 14:41:00,78.1,69.0,29.92,NNE,17,0.0,2.0,74,0.00,,,0.00,weatherlink.com 1.10,2013-08-06 18:41:00,
2013-08-06 14:56:00,78.1,70.0,29.91,NNE,17,0.0,3.0,76,0.00,,,0.00,weatherlink.com 1.10,2013-08-06 18:56:00,
2013-08-06 15:11:00,78.2,70.0,29.91,NNE,17,0.0,2.0,76,0.00,,,0.00,weatherlink.com 1.10,2013-08-06 19:11:00,
2013-08-06 15:26:00,77.2,70.0,29.90,NNE,18,0.0,3.0,77,0.00,,,0.00,weatherlink.com 1.10,2013-08-06 19:26:00,
2013-08-06 15:41:00,77.5,70.0,29.89,NNE,30,0.0,4.0,78,0.00,,,0.00,weatherlink.com 1.10,2013-08-06 19:41:00,
2013-08-06 15:56:00,77.8,71.0,29.89,NNE,30,0.0,2.0,79,0.00,,,0.00,weatherlink.com 1.10,2013-08-06 19:56:00,
2013-08-06 16:11:00,77.5,71.0,29.89,NNE,30,1.0,2.0,80,0.00,,,0.00,weatherlink.com 1.10,2013-08-06 20:11:00,
2013-08-06 16:26:00,77.0,71.0,29.89,NNE,30,1.0,2.0,81,0.00,,,0.00,weatherlink.com 1.10,2013-08-06 20:26:00,
2013-08-06 16:41:00,77.0,71.0,29.89,ENE,65,1.0,3.0,82,0.00,,,0.00,weatherlink.com 1.10,2013-08-06 20:41:00,
2013-08-06 16:56:00,78.0,71.0,29.89,ENE,65,1.0,3.0,78,0.00,,,0.00,weatherlink.com 1.10,2013-08-06 20:56:00,
2013-08-06 17:11:00,78.1,71.0,29.89,ENE,65,0.0,2.0,79,0.00,,,0.00,weatherlink.com 1.10,2013-08-06 21:11:00,
2013-08-06 17:26:00,77.5,71.0,29.89,ENE,65,0.0,2.0,80,0.00,,,0.00,weatherlink.com 1.10,2013-08-06 21:26:00,
2013-08-06 17:41:00,77.9,72.0,29.90,ENE,65,0.0,2.0,81,0.00,,,0.00,weatherlink.com 1.10,2013-08-06 21:41:00,
2013-08-06 17:56:00,77.8,72.0,29.90,ENE,65,0.0,1.0,82,0.00,,,0.00,weatherlink.com 1.10,2013-08-06 21:56:00,
2013-08-06 18:26:00,77.8,71.0,29.89,ENE,65,0.0,1.0,80,0.00,,,0.00,weatherlink.com 1.10,2013-08-06 22:26:00,
2013-08-06 18:41:00,77.5,71.0,29.89,ENE,65,0.0,0.0,81,0.00,,,0.00,weatherlink.com 1.10,2013-08-06 22:41:00,
2013-08-06 18:56:00,77.1,72.0,29.89,ENE,65,0.0,0.0,84,0.00,,,0.00,weatherlink.com 1.10,2013-08-06 22:56:00,
2013-08-06 19:11:00,76.8,71.0,29.89,ENE,65,0.0,0.0,83,0.00,,,0.00,weatherlink.com 1.10,2013-08-06 23:11:00,
2013-08-06 19:26:00,76.1,71.0,29.89,ENE,65,0.0,0.0,85,0.00,,,0.00,weatherlink.com 1.10,2013-08-06 23:26:00,
2013-08-06 19:41:00,75.5,71.0,29.90,ENE,65,0.0,0.0,85,0.00,,,0.00,weatherlink.com 1.10,2013-08-06 23:41:00,
2013-08-06 19:56:00,75.0,71.0,29.90,ENE,65,0.0,1.0,86,0.00,,,0.00,weatherlink.com 1.10,2013-08-06 23:56:00,
2013-08-06 20:11:00,74.5,71.0,29.91,ENE,65,0.0,0.0,88,0.00,,,0.00,weatherlink.com 1.10,2013-08-07 00:11:00,
2013-08-06 20:26:00,74.3,71.0,29.91,ENE,65,1.0,1.0,89,0.00,,,0.00,weatherlink.com 1.10,2013-08-07 00:26:00,
2013-08-06 20:41:00,73.9,71.0,29.90,ENE,65,0.0,1.0,89,0.00,,,0.00,weatherlink.com 1.10,2013-08-07 00:41:00,
2013-08-06 20:56:00,73.7,70.0,29.90,ENE,65,0.0,0.0,89,0.00,,,0.00,weatherlink.com 1.10,2013-08-07 00:56:00,
2013-08-06 21:11:00,73.5,71.0,29.89,ENE,65,0.0,1.0,91,0.00,,,0.00,weatherlink.com 1.10,2013-08-07 01:11:00,
2013-08-06 21:26:00,72.9,71.0,29.89,ESE,111,0.0,3.0,93,0.00,,,0.00,weatherlink.com 1.10,2013-08-07 01:26:00,
2013-08-06 21:41:00,72.4,71.0,29.89,ESE,111,1.0,2.0,95,0.00,,,0.00,weatherlink.com 1.10,2013-08-07 01:41:00,
2013-08-06 21:56:00,72.0,71.0,29.89,ESE,111,1.0,2.0,96,0.00,,,0.00,weatherlink.com 1.10,2013-08-07 01:56:00,
2013-08-06 22:11:00,71.7,71.0,29.89,South,175,2.0,4.0,97,0.00,,,0.00,weatherlink.com 1.10,2013-08-07 02:11:00,
2013-08-06 22:26:00,71.7,71.0,29.90,NNE,25,1.0,3.0,96,0.00,,,0.00,weatherlink.com 1.10,2013-08-07 02:26:00,
2013-08-06 22:41:00,71.5,70.0,29.91,SE,135,1.0,2.0,96,0.00,,,0.00,weatherlink.com 1.10,2013-08-07 02:41:00,
2013-08-06 22:56:00,71.4,71.0,29.91,SSE,162,0.0,2.0,98,0.00,,,0.00,weatherlink.com 1.10,2013-08-07 02:56:00,
2013-08-06 23:11:00,71.6,71.0,29.92,SSE,162,1.0,2.0,98,0.00,,,0.00,weatherlink.com 1.10,2013-08-07 03:11:00,
2013-08-06 23:26:00,71.6,71.0,29.92,SSE,163,0.0,3.0,98,0.00,,,0.00,weatherlink.com 1.10,2013-08-07 03:26:00,
2013-08-06 23:41:00,71.5,71.0,29.91,SSE,163,1.0,2.0,98,0.00,,,0.00,weatherlink.com 1.10,2013-08-07 03:41:00,
2013-08-06 23:56:00,71.7,71.0,29.91,NE,38,1.0,3.0,98,0.00,,,0.00,weatherlink.com 1.10,2013-08-07 03:56:00,